Pagina principale
METAR-TAF:

METAR-TAF

Aeroporti :

Szolnok, Ungheria

latitudine: 47-07N, longitudine: 020-14E, altezza: 89 m

Osservazione

Il bollettino è stato emesso 29 minuti fa, alle 11:45 UTC
Vento 4 kt da sud
Temperature 14°C
Umidità 41%
Pressione 1024 hPa
Visibilità 10 km o più
nessuna nube inferiore a 1500 m e nessun cumulonembo

METAR: LHSN 261145Z 17004KT CAVOK 14/01 Q1024 NOSIG RMK BLU

Ora: 14:14 (12:14 UTC)

Previsione

Il bollettino è stato emesso 59 minuti fa, alle 11:15 UTC
Previsione valida dal 26 alle 12 UTC al 26 alle 21 UTC
Vento 3 kt da direzioni variabili
Visibilità 10 km o più
nessuna nube inferiore a 1500 m e nessun cumulonembo
Temporaneamente
dal 26 alle 12 UTC al 26 alle 15 UTC
Vento 5 kt da sud-est
Temporaneamente
dal 26 alle 15 UTC al 26 alle 21 UTC
Vento 5 kt da est/nord-est

TAF: LHSN 261115Z 2612/2621 VRB03KT CAVOK TEMPO 2612/2615 14005KT TEMPO 2615/2621 06005KT

Osservazioni e previsioni meteorologiche di più di 4000 aeroporti (messaggi METAR e TAF).

Le stazioni disponibili sono rappresentate dai dischi gialli e rossi sulla carta.

Puntare il mouse per vedere il nome della stazione.

Clicca sopra per visualizzare le osservazioni e previsioni meteorologiche.

Per cambiare la mappa : fare clic sui pulsanti verdi con una croce nera per ingrandire, il pulsante verde con un trattino per diminuire, o sulla freccia verde per le mappe adiacenti.


METAR-TAF: